Time;durP1;ratioP1;P1;durP2;ratioP2;P2;SDS_P1;SDS_P2;PMS_P1;PMS_P2;Temp;Humidity;BMP_temperature;BMP_pressure;BME280_temperature;BME280_humidity;BME280_pressure;Samples;Min_cycle;Max_cycle;Signal;HPM_P1;HPM_P2
2022/12/15 00:40:34;;;;;;;38.33;18.47;;;-3.50;99.90;;;;;;6188654;23;20245;-73
2022/12/15 00:43:01;;;;;;;41.43;19.17;;;-3.50;99.90;;;;;;6188492;23;20174;-73
2022/12/15 00:46:53;;;;;;;40.57;18.97;;;-3.40;99.90;;;;;;6188474;23;20603;-72
2022/12/15 00:48:14;;;;;;;42.70;18.57;;;-3.40;99.90;;;;;;6188475;23;20210;-72
2022/12/15 00:50:52;;;;;;;41.43;18.87;;;-3.40;99.90;;;;;;6188846;23;20196;-74
2022/12/15 01:21:03;;;;;;;42.00;19.13;;;-3.40;99.90;;;;;;6190290;23;20621;-76
2022/12/15 01:23:31;;;;;;;40.70;17.93;;;-3.40;99.90;;;;;;6190585;23;20185;-77
2022/12/15 01:25:59;;;;;;;40.87;18.40;;;-3.30;99.90;;;;;;6217121;23;20594;-78
2022/12/15 01:28:26;;;;;;;39.20;18.10;;;-3.40;99.90;;;;;;6190165;23;20199;-78
2022/12/15 01:30:54;;;;;;;40.30;17.93;;;-3.30;99.90;;;;;;6190975;23;20274;-76
2022/12/15 01:33:21;;;;;;;41.07;18.37;;;-3.30;99.90;;;;;;6218145;23;20214;-77
2022/12/15 01:35:59;;;;;;;39.67;18.07;;;-3.20;99.90;;;;;;6191214;23;20202;-76
2022/12/15 01:38:27;;;;;;;39.03;17.63;;;-3.20;99.90;;;;;;6217515;23;20167;-72
2022/12/15 01:41:03;;;;;;;38.83;18.27;;;-3.20;99.90;;;;;;6191147;23;20185;-70
2022/12/15 01:43:33;;;;;;;41.77;18.03;;;-3.20;99.90;;;;;;6217344;23;20526;-73
2022/12/15 01:46:05;;;;;;;41.10;18.23;;;-3.20;99.90;;;;;;6166198;23;20496;-71
2022/12/15 01:48:43;;;;;;;38.17;17.90;;;-3.20;99.90;;;;;;6216691;23;20512;-73
2022/12/15 01:51:23;;;;;;;38.03;17.30;;;-3.20;99.90;;;;;;6190706;23;20605;-72
2022/12/15 01:54:08;;;;;;;47.03;19.37;;;-3.20;99.90;;;;;;6216835;23;20623;-72
2022/12/15 01:56:42;;;;;;;39.20;18.07;;;-3.20;99.90;;;;;;6215615;23;20203;-70
2022/12/15 01:59:14;;;;;;;40.53;17.87;;;-3.20;99.90;;;;;;6189806;23;20175;-72
2022/12/15 02:01:41;;;;;;;40.00;17.70;;;-3.10;99.90;;;;;;6190355;23;20161;-73
2022/12/15 02:04:09;;;;;;;42.40;17.77;;;-3.20;99.90;;;;;;6190137;23;20254;-72
2022/12/15 02:06:36;;;;;;;40.80;18.20;;;-3.20;99.90;;;;;;6216763;23;20669;-71
2022/12/15 02:09:03;;;;;;;38.07;17.70;;;-3.10;99.90;;;;;;6190478;23;20187;-72
2022/12/15 02:11:48;;;;;;;38.77;17.80;;;-3.10;99.90;;;;;;6190941;23;20166;-72
2022/12/15 02:14:30;;;;;;;39.47;17.33;;;-3.00;99.90;;;;;;6190007;23;20163;-73
2022/12/15 02:17:33;;;;;;;38.20;17.20;;;-3.00;99.90;;;;;;6217168;23;20262;-74
2022/12/15 02:20:33;;;;;;;43.70;17.87;;;-3.00;99.90;;;;;;6180024;23;20206;-73
2022/12/15 02:23:18;;;;;;;44.20;18.20;;;-3.00;99.90;;;;;;6190378;23;20176;-74
2022/12/15 02:26:07;;;;;;;40.07;17.87;;;-3.00;99.90;;;;;;6189187;23;20175;-74
2022/12/15 02:28:51;;;;;;;39.60;17.40;;;-3.00;99.90;;;;;;6216215;23;20218;-74
2022/12/15 02:31:48;;;;;;;43.97;18.40;;;-3.00;99.90;;;;;;6217061;23;20181;-75
2022/12/15 02:34:27;;;;;;;39.73;17.83;;;-3.00;99.90;;;;;;6216711;23;20171;-73
2022/12/15 02:37:07;;;;;;;39.83;18.00;;;-3.00;99.90;;;;;;6189731;23;20201;-74
2022/12/15 02:39:34;;;;;;;39.63;17.37;;;-3.00;99.90;;;;;;6216913;23;20155;-77
2022/12/15 02:42:01;;;;;;;41.70;18.33;;;-3.00;99.90;;;;;;6190627;23;20509;-74
2022/12/15 02:44:37;;;;;;;40.13;17.13;;;-3.00;99.90;;;;;;6190585;23;20172;-73
2022/12/15 02:47:28;;;;;;;38.20;17.60;;;-3.00;99.90;;;;;;6189881;23;20171;-75
2022/12/15 02:50:20;;;;;;;39.17;17.10;;;-3.00;99.90;;;;;;6189694;23;20174;-75
2022/12/15 02:53:05;;;;;;;42.60;18.07;;;-2.90;99.90;;;;;;6164562;23;20171;-72
2022/12/15 02:55:56;;;;;;;40.00;17.63;;;-2.90;99.90;;;;;;6189132;23;20211;-73
2022/12/15 02:58:59;;;;;;;44.00;18.43;;;-2.90;99.90;;;;;;6189747;23;20171;-70
2022/12/15 03:01:39;;;;;;;39.67;17.30;;;-2.80;99.90;;;;;;6193399;23;20182;-71
2022/12/15 03:04:09;;;;;;;41.13;16.80;;;-2.80;99.90;;;;;;6216385;23;20166;-74
2022/12/15 03:06:36;;;;;;;42.27;18.60;;;-2.80;99.90;;;;;;6215877;23;20468;-73
2022/12/15 03:09:03;;;;;;;38.17;17.40;;;-2.90;99.90;;;;;;6216622;23;20192;-72
2022/12/15 03:11:30;;;;;;;40.10;17.30;;;-2.90;99.90;;;;;;6190705;23;20598;-75
2022/12/15 03:13:57;;;;;;;35.47;17.13;;;-2.90;99.90;;;;;;6216959;23;20504;-77
2022/12/15 03:16:24;;;;;;;38.10;16.90;;;-2.80;99.90;;;;;;6189395;23;20518;-73
2022/12/15 03:18:51;;;;;;;39.07;17.17;;;-2.80;99.90;;;;;;6187593;23;20194;-74
2022/12/15 03:21:18;;;;;;;42.53;17.67;;;-2.90;99.90;;;;;;6188795;23;20185;-76
2022/12/15 03:23:45;;;;;;;37.87;17.80;;;-2.90;99.90;;;;;;6189672;23;20261;-76
2022/12/15 03:26:12;;;;;;;39.90;17.47;;;-2.90;99.90;;;;;;6215980;23;20217;-75
2022/12/15 03:28:38;;;;;;;38.07;17.57;;;-2.80;99.90;;;;;;6189254;23;20652;-76
2022/12/15 03:31:06;;;;;;;34.53;16.97;;;-2.80;99.90;;;;;;6215932;23;20246;-74
2022/12/15 03:33:33;;;;;;;41.70;17.87;;;-2.80;99.90;;;;;;6189406;23;20175;-75
2022/12/15 03:36:00;;;;;;;36.63;17.17;;;-2.80;99.90;;;;;;6188911;23;20171;-75
2022/12/15 03:38:27;;;;;;;38.73;17.93;;;-2.80;99.90;;;;;;6189284;23;20166;-76
2022/12/15 03:40:54;;;;;;;36.27;18.03;;;-2.90;99.90;;;;;;6190134;23;20195;-77
2022/12/15 03:43:21;;;;;;;39.77;17.80;;;-2.90;99.90;;;;;;6190020;23;20167;-77
2022/12/15 03:45:48;;;;;;;41.67;17.67;;;-3.00;99.90;;;;;;6189956;23;20179;-78
2022/12/15 03:48:15;;;;;;;39.27;17.13;;;-3.00;99.90;;;;;;6216024;23;20269;-78
2022/12/15 03:50:43;;;;;;;37.00;17.00;;;-3.00;99.90;;;;;;6189520;23;20175;-77
2022/12/15 03:53:10;;;;;;;42.07;18.07;;;-2.90;99.90;;;;;;6189744;23;20577;-74
2022/12/15 03:55:36;;;;;;;37.50;17.17;;;-2.80;99.90;;;;;;6189422;23;20202;-75
2022/12/15 03:58:03;;;;;;;36.37;17.03;;;-2.80;99.90;;;;;;6190192;23;20179;-73
2022/12/15 04:00:30;;;;;;;39.67;17.80;;;-2.70;99.90;;;;;;6189019;23;20480;-73
2022/12/15 04:02:57;;;;;;;38.57;17.03;;;-2.70;99.90;;;;;;6188770;23;20190;-77
2022/12/15 04:05:33;;;;;;;39.77;17.63;;;-2.70;99.90;;;;;;6189010;23;20169;-73
2022/12/15 04:08:00;;;;;;;41.20;17.83;;;-2.70;99.90;;;;;;6189038;23;20483;-72
2022/12/15 04:10:30;;;;;;;42.10;18.97;;;-2.70;99.90;;;;;;6216093;23;20253;-76
2022/12/15 04:13:05;;;;;;;40.60;17.73;;;-2.80;99.90;;;;;;6188926;23;20172;-71
2022/12/15 04:15:34;;;;;;;39.23;18.43;;;-2.80;99.90;;;;;;6188966;23;20225;-74
2022/12/15 04:18:03;;;;;;;39.97;18.53;;;-2.80;99.90;;;;;;6189368;23;20641;-73
2022/12/15 04:20:30;;;;;;;39.03;17.20;;;-2.70;99.90;;;;;;6188974;23;20170;-73
2022/12/15 04:22:57;;;;;;;43.27;18.27;;;-2.60;99.90;;;;;;6215943;23;20191;-72
2022/12/15 05:32:07;;;;;;;50.00;20.47;;;-2.90;99.90;;;;;;6187127;23;20252;-75
2022/12/15 05:34:35;;;;;;;46.70;20.53;;;-3.00;99.90;;;;;;6185576;23;20168;-72
2022/12/15 05:37:04;;;;;;;46.00;20.07;;;-3.00;99.90;;;;;;6185871;23;20188;-75
2022/12/15 05:39:31;;;;;;;47.53;20.47;;;-3.00;99.90;;;;;;6185730;23;20168;-77
2022/12/15 05:41:57;;;;;;;46.70;20.37;;;-3.00;99.90;;;;;;6185499;23;20206;-75
2022/12/15 05:44:26;;;;;;;50.97;21.07;;;-2.90;99.90;;;;;;6186667;23;20172;-74
2022/12/15 05:46:54;;;;;;;52.00;22.67;;;-3.10;99.90;;;;;;6184909;23;20447;-73
2022/12/15 05:49:23;;;;;;;51.07;21.73;;;-3.00;99.90;;;;;;6159810;23;20201;-74
2022/12/15 05:51:50;;;;;;;53.70;21.90;;;-3.10;99.90;;;;;;6184859;23;20178;-75
2022/12/15 05:54:18;;;;;;;55.67;22.70;;;-3.00;99.90;;;;;;6184553;23;20173;-75
2022/12/15 05:56:46;;;;;;;56.17;23.50;;;-3.00;99.90;;;;;;6184018;23;20203;-75
2022/12/15 05:59:17;;;;;;;57.03;23.50;;;-3.10;99.90;;;;;;6186178;23;20251;-77
2022/12/15 06:01:45;;;;;;;48.43;21.63;;;-3.20;99.90;;;;;;6184223;23;20175;-77
2022/12/15 06:04:12;;;;;;;55.23;22.50;;;-3.20;99.90;;;;;;6186607;23;20198;-75
2022/12/15 06:06:40;;;;;;;52.10;23.27;;;-3.20;99.90;;;;;;6184741;23;20176;-71
2022/12/15 06:09:08;;;;;;;55.63;24.03;;;-3.10;99.90;;;;;;6185049;23;20191;-74
2022/12/15 06:11:36;;;;;;;53.80;23.63;;;-3.00;99.90;;;;;;6184842;23;20891;-71
2022/12/15 06:14:03;;;;;;;54.67;23.77;;;-3.10;99.90;;;;;;6186306;23;20169;-75
2022/12/15 06:16:30;;;;;;;61.67;23.83;;;-3.20;99.90;;;;;;6186425;23;20175;-72
2022/12/15 06:18:59;;;;;;;58.13;24.23;;;-3.10;99.90;;;;;;6184503;23;20653;-72
2022/12/15 06:21:34;;;;;;;59.07;24.03;;;-3.10;99.90;;;;;;6184853;23;20251;-72
2022/12/15 06:24:02;;;;;;;63.27;24.80;;;-3.10;99.90;;;;;;6184874;23;20179;-74
2022/12/15 06:26:32;;;;;;;55.13;24.53;;;-3.10;99.90;;;;;;6184269;23;20168;-73
2022/12/15 06:29:01;;;;;;;57.53;24.37;;;-3.20;99.90;;;;;;6184495;23;20203;-74
2022/12/15 06:31:29;;;;;;;62.87;25.43;;;-3.40;99.90;;;;;;6184444;23;20254;-75
2022/12/15 06:33:56;;;;;;;64.07;25.30;;;-3.30;99.90;;;;;;6184610;23;20664;-71
2022/12/15 06:36:29;;;;;;;61.67;24.17;;;-3.30;99.90;;;;;;6184372;23;20164;-74
2022/12/15 06:39:03;;;;;;;57.60;24.93;;;-3.20;99.90;;;;;;6185179;23;20182;-73
2022/12/15 06:41:31;;;;;;;58.57;23.97;;;-3.20;99.90;;;;;;6185016;23;20173;-74
2022/12/15 06:43:59;;;;;;;58.70;24.90;;;-3.20;99.90;;;;;;6184671;23;20179;-73
2022/12/15 06:46:28;;;;;;;55.50;25.23;;;-3.20;99.90;;;;;;6185897;23;20169;-73
2022/12/15 06:48:55;;;;;;;56.80;24.10;;;-3.20;99.90;;;;;;6184068;23;20238;-74
2022/12/15 06:51:22;;;;;;;62.83;24.23;;;-3.10;99.90;;;;;;6185942;23;20526;-70
2022/12/15 06:53:52;;;;;;;58.90;24.63;;;-3.20;99.90;;;;;;6184527;23;20176;-71
2022/12/15 06:56:25;;;;;;;59.30;24.97;;;-3.20;99.90;;;;;;6199912;23;20191;-73
2022/12/15 06:58:59;;;;;;;62.70;26.63;;;-3.20;99.90;;;;;;6189572;23;20481;-74
2022/12/15 07:01:26;;;;;;;59.60;25.63;;;-3.20;99.90;;;;;;6216494;23;20242;-76
2022/12/15 07:03:54;;;;;;;59.40;26.30;;;-3.20;99.90;;;;;;6189342;23;20567;-78
2022/12/15 07:06:21;;;;;;;58.13;25.77;;;-3.30;99.90;;;;;;6189980;23;20269;-82
2022/12/15 07:08:55;;;;;;;60.67;26.67;;;-3.20;99.90;;;;;;6191301;23;20217;-86
2022/12/15 07:11:23;;;;;;;62.40;26.43;;;-3.20;99.90;;;;;;6190373;23;20163;-82
2022/12/15 07:13:51;;;;;;;61.97;27.07;;;-3.30;99.90;;;;;;6214729;23;20269;-73
2022/12/15 07:16:18;;;;;;;62.43;26.47;;;-3.30;99.90;;;;;;6215745;23;20616;-71
2022/12/15 07:18:45;;;;;;;62.50;26.73;;;-3.40;99.90;;;;;;6189154;23;20197;-72
2022/12/15 07:21:12;;;;;;;67.23;26.67;;;-3.40;99.90;;;;;;6216171;23;20221;-72
2022/12/15 07:23:39;;;;;;;64.30;28.30;;;-3.50;99.90;;;;;;6189702;23;20675;-75
2022/12/15 07:26:21;;;;;;;68.87;28.47;;;-3.40;99.90;;;;;;6188897;23;20502;-69
2022/12/15 07:28:48;;;;;;;67.40;28.07;;;-3.20;99.90;;;;;;6187892;23;20186;-74
2022/12/15 07:31:14;;;;;;;72.07;29.97;;;-3.20;99.90;;;;;;6188849;23;20184;-73
2022/12/15 07:33:42;;;;;;;68.80;29.90;;;-3.20;99.90;;;;;;6189090;23;20159;-73
2022/12/15 07:36:09;;;;;;;75.83;29.73;;;-3.30;99.90;;;;;;6189022;23;20178;-71
2022/12/15 07:38:37;;;;;;;62.50;28.20;;;-3.30;99.90;;;;;;6189366;23;20216;-72
2022/12/15 07:41:06;;;;;;;73.03;29.80;;;-3.20;99.90;;;;;;6188898;23;20263;-73
2022/12/15 07:43:33;;;;;;;68.37;28.53;;;-3.10;99.90;;;;;;6215630;23;20174;-71
2022/12/15 07:46:03;;;;;;;68.07;27.07;;;-3.20;99.90;;;;;;6188419;23;20266;-76
2022/12/15 07:48:31;;;;;;;72.17;29.07;;;-3.20;99.90;;;;;;6164369;23;20195;-74
2022/12/15 07:50:58;;;;;;;71.53;29.43;;;-3.20;99.90;;;;;;6188364;23;20177;-73
2022/12/15 07:53:37;;;;;;;67.07;28.53;;;-3.20;99.90;;;;;;6215422;23;20498;-71
2022/12/15 07:56:05;;;;;;;67.73;27.63;;;-3.10;99.90;;;;;;6188589;23;20202;-73
2022/12/15 07:58:35;;;;;;;65.47;29.00;;;-3.10;99.90;;;;;;6188396;23;20617;-73
2022/12/15 08:01:04;;;;;;;70.57;29.60;;;-3.00;99.90;;;;;;6188831;23;20182;-72
2022/12/15 08:03:32;;;;;;;68.57;29.37;;;-3.00;99.90;;;;;;6189028;23;20262;-73
2022/12/15 08:06:05;;;;;;;77.37;29.47;;;-3.00;99.90;;;;;;6189296;23;20159;-75
2022/12/15 08:08:33;;;;;;;67.20;29.60;;;-3.10;99.90;;;;;;6189416;23;20175;-72
2022/12/15 08:11:09;;;;;;;64.33;29.30;;;-3.00;99.90;;;;;;6188924;23;20179;-74
2022/12/15 08:13:37;;;;;;;66.43;28.63;;;-3.00;99.90;;;;;;6215306;23;20166;-80
2022/12/15 08:16:24;;;;;;;64.20;27.10;;;-3.00;99.90;;;;;;6188442;23;20171;-79
2022/12/15 08:18:51;;;;;;;65.07;27.93;;;-3.00;99.90;;;;;;6189169;23;20195;-79
2022/12/15 08:21:18;;;;;;;65.43;29.13;;;-3.00;99.90;;;;;;6189188;23;20170;-73
2022/12/15 08:23:45;;;;;;;61.30;27.23;;;-3.00;99.90;;;;;;6188453;23;20625;-74
2022/12/15 08:26:17;;;;;;;66.53;28.73;;;-3.10;99.90;;;;;;6188736;23;20171;-74
2022/12/15 08:28:44;;;;;;;63.27;26.93;;;-3.10;99.90;;;;;;6188759;23;20198;-75
2022/12/15 08:31:17;;;;;;;63.83;27.53;;;-3.10;99.90;;;;;;6188575;23;20181;-74
2022/12/15 08:33:45;;;;;;;62.63;28.37;;;-3.00;99.90;;;;;;6188651;23;20163;-74
2022/12/15 08:36:14;;;;;;;66.53;28.43;;;-3.00;99.90;;;;;;6215538;23;20609;-78
2022/12/15 08:38:42;;;;;;;65.67;29.07;;;-2.90;99.90;;;;;;6188806;23;20231;-75
2022/12/15 08:41:21;;;;;;;65.97;29.83;;;-3.00;99.90;;;;;;6188792;23;20167;-76
2022/12/15 08:43:50;;;;;;;68.80;29.53;;;-3.00;99.90;;;;;;6188493;23;20174;-75
2022/12/15 08:46:21;;;;;;;72.50;29.87;;;-3.00;99.90;;;;;;6188309;23;20636;-73
2022/12/15 08:48:48;;;;;;;64.70;29.10;;;-3.00;99.90;;;;;;6215059;23;20229;-74
2022/12/15 08:51:16;;;;;;;74.07;29.80;;;-2.90;99.90;;;;;;6215324;23;20182;-74
2022/12/15 08:53:43;;;;;;;72.67;30.13;;;-3.00;99.90;;;;;;6189293;23;20171;-83
2022/12/15 08:56:16;;;;;;;69.93;29.17;;;-2.90;99.90;;;;;;6188439;23;20285;-74
2022/12/15 08:58:44;;;;;;;62.80;28.60;;;-2.80;99.90;;;;;;6189766;23;20167;-82
2022/12/15 09:01:13;;;;;;;66.77;28.27;;;-2.60;99.90;;;;;;6188939;23;20178;-76
2022/12/15 09:03:49;;;;;;;62.63;27.87;;;-2.60;99.90;;;;;;6188886;23;20198;-80
2022/12/15 09:06:20;;;;;;;68.07;27.50;;;-2.60;99.90;;;;;;6188721;23;20195;-75
2022/12/15 09:08:47;;;;;;;62.93;27.17;;;-2.60;99.90;;;;;;6188790;23;20282;-81
2022/12/15 09:11:18;;;;;;;58.47;25.50;;;-2.40;99.90;;;;;;6215601;23;20218;-76
2022/12/15 09:13:45;;;;;;;60.57;26.80;;;-2.30;99.90;;;;;;6215458;23;20241;-76
2022/12/15 09:16:14;;;;;;;55.60;25.27;;;-2.40;99.90;;;;;;6188928;23;20245;-81
2022/12/15 09:18:47;;;;;;;57.43;24.57;;;-2.30;99.90;;;;;;6216139;23;20193;-78
2022/12/15 09:21:15;;;;;;;55.03;23.60;;;-2.40;99.90;;;;;;6189679;23;20606;-79
2022/12/15 09:23:45;;;;;;;58.07;24.27;;;-2.30;99.90;;;;;;6190378;23;20487;-80
2022/12/15 09:26:14;;;;;;;61.60;26.03;;;-2.30;99.90;;;;;;6189815;23;20183;-76
2022/12/15 09:28:42;;;;;;;58.17;24.90;;;-2.50;99.90;;;;;;6188576;23;20190;-74
2022/12/15 09:31:13;;;;;;;61.50;27.03;;;-2.50;99.90;;;;;;6188447;23;20607;-73
2022/12/15 09:33:41;;;;;;;68.50;27.30;;;-2.80;99.90;;;;;;6189113;23;20225;-75
2022/12/15 09:36:11;;;;;;;67.67;29.30;;;-2.90;99.90;;;;;;6217402;23;20545;-74
2022/12/15 09:38:40;;;;;;;70.30;29.23;;;-2.80;99.90;;;;;;6191195;23;20174;-74
2022/12/15 09:41:16;;;;;;;76.73;30.33;;;-2.80;99.90;;;;;;6216896;23;20179;-80
2022/12/15 09:44:05;;;;;;;68.27;29.77;;;-2.90;99.90;;;;;;6190486;23;20170;-72
2022/12/15 09:46:38;;;;;;;63.83;29.00;;;-2.80;99.90;;;;;;6190334;23;20182;-78
2022/12/15 09:49:32;;;;;;;65.93;26.67;;;-2.80;99.90;;;;;;6190480;23;20190;-77
2022/12/15 09:52:06;;;;;;;61.97;25.90;;;-2.80;99.90;;;;;;6185064;23;20210;-78
2022/12/15 09:54:40;;;;;;;51.47;21.47;;;-2.80;99.90;;;;;;6190528;23;20175;-79
2022/12/15 09:57:42;;;;;;;49.13;20.90;;;-2.90;99.90;;;;;;6190550;23;20236;-81
2022/12/15 10:00:19;;;;;;;49.60;20.80;;;-2.90;99.90;;;;;;6155268;23;20713;-80
2022/12/15 10:03:23;;;;;;;49.10;22.13;;;-2.90;99.90;;;;;;6129629;23;20662;-81
2022/12/15 10:06:04;;;;;;;53.17;21.70;;;-2.80;99.90;;;;;;6130209;23;20265;-83
2022/12/15 10:08:55;;;;;;;50.77;21.23;;;-2.80;99.90;;;;;;6133842;23;20223;-83
2022/12/15 10:11:40;;;;;;;52.00;21.87;;;-2.80;99.90;;;;;;6130075;23;20646;-81
2022/12/15 10:14:15;;;;;;;45.07;19.00;;;-2.90;99.90;;;;;;6154709;23;20176;-81
2022/12/15 10:17:20;;;;;;;50.13;19.93;;;-2.90;99.90;;;;;;6129395;23;20222;-82
2022/12/15 10:20:17;;;;;;;51.90;20.90;;;-2.80;99.90;;;;;;6130218;23;20264;-81
2022/12/15 10:22:44;;;;;;;57.07;23.20;;;-2.80;99.90;;;;;;6130005;23;20175;-84
2022/12/15 10:25:29;;;;;;;56.10;22.57;;;-2.80;99.90;;;;;;6154522;23;20172;-82
2022/12/15 10:28:14;;;;;;;56.80;23.83;;;-2.80;99.90;;;;;;6130045;23;20183;-82
2022/12/15 10:30:55;;;;;;;65.63;25.40;;;-2.90;99.90;;;;;;6154180;23;20211;-83
2022/12/15 10:33:24;;;;;;;65.20;24.37;;;-2.90;99.90;;;;;;6154215;23;20172;-78
2022/12/15 10:35:54;;;;;;;60.83;23.70;;;-2.80;99.90;;;;;;6153621;23;20236;-77
2022/12/15 10:38:36;;;;;;;56.63;23.23;;;-2.80;99.90;;;;;;6216272;23;20254;-73
2022/12/15 10:41:07;;;;;;;56.47;23.33;;;-2.80;99.90;;;;;;6216649;23;20550;-79
2022/12/15 10:43:37;;;;;;;61.13;24.97;;;-2.90;99.90;;;;;;6189632;23;20186;-81
2022/12/15 10:46:23;;;;;;;64.87;25.20;;;-3.00;99.90;;;;;;6188576;23;20599;-78
2022/12/15 10:48:59;;;;;;;59.90;24.57;;;-2.90;99.90;;;;;;6215950;23;20252;-75
2022/12/15 10:51:31;;;;;;;65.37;25.10;;;-2.80;99.90;;;;;;6215966;23;20497;-76
2022/12/15 10:54:02;;;;;;;65.03;24.77;;;-2.80;99.90;;;;;;6190072;23;20171;-74
2022/12/15 10:56:30;;;;;;;68.43;25.60;;;-2.80;99.90;;;;;;6188712;23;20208;-76
2022/12/15 10:59:03;;;;;;;63.73;25.17;;;-2.80;99.90;;;;;;6189801;23;20161;-75
2022/12/15 11:01:32;;;;;;;63.47;25.67;;;-2.90;99.90;;;;;;6188980;23;20171;-74
2022/12/15 11:04:00;;;;;;;66.67;26.17;;;-2.80;99.90;;;;;;6215452;23;20168;-76
2022/12/15 11:06:32;;;;;;;65.63;25.60;;;-2.80;99.90;;;;;;6215795;23;20184;-75
2022/12/15 11:09:26;;;;;;;63.67;25.23;;;-2.80;99.90;;;;;;6189520;23;20167;-75
2022/12/15 11:14:47;;;;;;;72.97;27.63;;;-3.00;99.90;;;;;;6189189;23;20199;-76
2022/12/15 11:17:22;;;;;;;77.93;29.30;;;-3.00;99.90;;;;;;6189048;23;20261;-75
2022/12/15 11:20:03;;;;;;;76.27;28.27;;;-2.90;99.90;;;;;;6189453;23;20702;-74
2022/12/15 11:22:48;;;;;;;71.87;28.67;;;-2.80;99.90;;;;;;6189559;23;20187;-83
2022/12/15 11:25:21;;;;;;;76.60;27.77;;;-2.90;99.90;;;;;;6216060;23;20250;-82
2022/12/15 11:27:50;;;;;;;75.03;27.77;;;-2.90;99.90;;;;;;6190958;23;20178;-82
2022/12/15 11:30:21;;;;;;;71.30;29.00;;;-3.00;99.90;;;;;;6189380;23;20198;-79
2022/12/15 11:32:52;;;;;;;77.53;27.87;;;-3.00;99.90;;;;;;6164497;23;20189;-83
2022/12/15 11:35:49;;;;;;;65.20;26.03;;;-2.90;99.90;;;;;;6188757;23;20199;-84
2022/12/15 11:38:58;;;;;;;61.10;24.40;;;-2.90;99.90;;;;;;6215881;23;20163;-81
2022/12/15 11:41:49;;;;;;;68.67;26.50;;;-3.00;99.90;;;;;;6215438;23;20652;-75
2022/12/15 11:44:40;;;;;;;73.07;26.60;;;-3.00;99.90;;;;;;6215000;23;20166;-75
2022/12/15 11:47:22;;;;;;;74.40;27.90;;;-3.10;99.90;;;;;;6188103;23;20175;-73
2022/12/15 11:49:58;;;;;;;77.27;28.43;;;-3.10;99.90;;;;;;6187560;23;20200;-76
2022/12/15 11:52:37;;;;;;;81.67;29.30;;;-3.10;99.90;;;;;;6214262;23;20191;-76
2022/12/15 11:55:19;;;;;;;75.77;28.77;;;-3.10;99.90;;;;;;6187741;23;20603;-78
2022/12/15 11:58:53;;;;;;;77.17;29.43;;;-3.20;99.90;;;;;;6215021;23;20178;-79
2022/12/15 12:01:32;;;;;;;72.23;27.17;;;-3.20;99.90;;;;;;6152771;23;20180;-78
2022/12/15 12:04:17;;;;;;;80.07;29.30;;;-3.10;99.90;;;;;;6128006;23;20231;-77
2022/12/15 12:06:57;;;;;;;76.10;27.90;;;-3.00;99.90;;;;;;6128224;23;20255;-75
2022/12/15 12:09:35;;;;;;;77.53;27.50;;;-3.00;99.90;;;;;;6127218;23;20177;-79
2022/12/15 12:12:29;;;;;;;77.47;28.27;;;-3.20;99.90;;;;;;6128487;23;20173;-78
2022/12/15 12:15:27;;;;;;;65.40;25.50;;;-3.20;99.90;;;;;;6152910;23;20528;-80
2022/12/15 12:18:30;;;;;;;70.33;26.27;;;-3.20;99.90;;;;;;6128145;23;20676;-78
2022/12/15 12:21:12;;;;;;;69.27;25.33;;;-3.10;99.90;;;;;;6064147;23;20184;-75
2022/12/15 12:23:48;;;;;;;67.80;25.77;;;-3.10;99.90;;;;;;6065239;23;20279;-77
2022/12/15 12:26:32;;;;;;;67.00;26.13;;;-3.20;99.90;;;;;;6064535;23;20699;-80
2022/12/15 12:28:59;;;;;;;74.87;26.97;;;-3.20;99.90;;;;;;6040262;23;20174;-80
2022/12/15 12:31:55;;;;;;;69.27;26.23;;;-3.20;99.90;;;;;;6040900;23;20293;-80
2022/12/15 12:34:54;;;;;;;72.50;25.73;;;-3.40;99.90;;;;;;6046992;23;20173;-80
2022/12/15 12:37:42;;;;;;;72.57;27.00;;;-3.40;99.90;;;;;;6093409;23;20177;-76
2022/12/15 12:40:27;;;;;;;78.60;27.53;;;-3.40;99.90;;;;;;6093171;23;20606;-73
2022/12/15 12:42:57;;;;;;;75.17;28.53;;;-3.40;99.90;;;;;;6092780;23;20181;-74
2022/12/15 12:46:04;;;;;;;75.53;27.93;;;-3.30;99.90;;;;;;6067827;23;20173;-73
2022/12/15 12:48:51;;;;;;;72.13;27.20;;;-3.30;99.90;;;;;;5983908;23;20497;-73
2022/12/15 12:51:26;;;;;;;73.70;26.70;;;-3.10;99.90;;;;;;6006529;23;20215;-71
2022/12/15 12:53:53;;;;;;;67.63;25.83;;;-3.30;99.90;;;;;;5984088;23;20552;-73
2022/12/15 12:56:42;;;;;;;76.53;26.93;;;-3.30;99.90;;;;;;6031370;23;20241;-73
2022/12/15 12:59:29;;;;;;;66.97;24.77;;;-3.30;99.90;;;;;;6089420;23;20182;-76
2022/12/15 13:02:09;;;;;;;68.37;25.10;;;-3.30;99.90;;;;;;6065342;23;20174;-80
2022/12/15 13:04:38;;;;;;;72.33;25.47;;;-3.30;99.90;;;;;;6089324;23;20279;-77
2022/12/15 13:07:30;;;;;;;65.13;25.10;;;-3.30;99.90;;;;;;6042022;23;20181;-81
2022/12/15 13:10:07;;;;;;;63.67;25.00;;;-3.20;99.90;;;;;;6090561;23;20194;-78
2022/12/15 13:12:45;;;;;;;69.90;25.07;;;-3.20;99.90;;;;;;6091761;23;20178;-82
2022/12/15 13:15:46;;;;;;;65.47;23.43;;;-3.20;99.90;;;;;;6090834;23;20178;-78
2022/12/15 13:18:21;;;;;;;59.77;23.17;;;-3.20;99.90;;;;;;5984440;23;20522;-75
2022/12/15 13:20:52;;;;;;;68.77;24.43;;;-3.20;99.90;;;;;;5985879;23;20199;-75
2022/12/15 13:23:22;;;;;;;62.87;23.57;;;-3.30;99.90;;;;;;5985811;23;20622;-75
2022/12/15 13:25:51;;;;;;;66.90;24.63;;;-3.30;99.90;;;;;;6049735;23;20254;-74
2022/12/15 13:28:43;;;;;;;72.60;25.03;;;-3.30;99.90;;;;;;6066388;23;20174;-77
2022/12/15 13:31:17;;;;;;;65.97;26.00;;;-3.40;99.90;;;;;;6042359;23;20595;-79
2022/12/15 13:33:51;;;;;;;63.07;23.83;;;-3.30;99.90;;;;;;6042892;23;20179;-77
2022/12/15 13:36:36;;;;;;;60.03;22.33;;;-3.40;99.90;;;;;;6066834;23;20254;-77
2022/12/15 13:39:26;;;;;;;57.67;21.80;;;-3.50;99.90;;;;;;6042930;23;20174;-79
2022/12/15 13:41:55;;;;;;;59.80;19.97;;;-3.50;99.90;;;;;;6043501;23;20185;-79
2022/12/15 13:44:51;;;;;;;51.97;19.13;;;-3.60;99.90;;;;;;6043150;23;20181;-78
2022/12/15 13:47:28;;;;;;;52.73;18.73;;;-3.60;99.90;;;;;;6042671;23;20189;-72
2022/12/15 13:50:01;;;;;;;56.63;19.03;;;-3.70;99.90;;;;;;6042684;23;20188;-73
2022/12/15 13:53:05;;;;;;;56.43;18.53;;;-3.70;99.90;;;;;;6042652;23;20192;-73
2022/12/15 13:55:54;;;;;;;51.17;19.13;;;-3.70;99.90;;;;;;6039625;23;20504;-74
2022/12/15 13:58:23;;;;;;;43.07;16.00;;;-3.90;99.90;;;;;;6095090;23;20182;-74
2022/12/15 14:00:55;;;;;;;49.53;18.20;;;-3.90;99.90;;;;;;6071445;23;20229;-74
2022/12/15 14:03:22;;;;;;;59.43;18.80;;;-4.00;99.90;;;;;;6095115;23;20197;-75
2022/12/15 14:05:56;;;;;;;49.60;18.00;;;-4.10;99.90;;;;;;6070717;23;20185;-76
2022/12/15 14:08:28;;;;;;;60.30;19.07;;;-4.10;99.90;;;;;;6095320;23;20308;-77
2022/12/15 14:11:00;;;;;;;51.87;18.57;;;-4.10;99.90;;;;;;6095882;23;20284;-72
2022/12/15 14:13:47;;;;;;;58.83;19.43;;;-4.10;99.90;;;;;;6071449;23;20204;-76
2022/12/15 14:16:21;;;;;;;54.00;18.97;;;-4.20;99.90;;;;;;6071156;23;20185;-78
2022/12/15 14:19:14;;;;;;;55.90;19.43;;;-4.20;99.90;;;;;;6071159;23;20193;-75
2022/12/15 14:21:51;;;;;;;62.87;20.10;;;-4.10;99.90;;;;;;6070954;23;20182;-72
2022/12/15 14:24:30;;;;;;;61.43;19.83;;;-4.20;99.90;;;;;;6071185;23;20592;-73
2022/12/15 14:27:06;;;;;;;60.47;19.93;;;-4.20;99.90;;;;;;6095197;23;20257;-75
2022/12/15 14:29:33;;;;;;;61.50;21.10;;;-4.10;99.90;;;;;;6095902;23;20254;-72
2022/12/15 14:32:00;;;;;;;53.77;19.90;;;-4.10;99.90;;;;;;6170951;23;20225;-75
2022/12/15 14:34:40;;;;;;;58.73;18.47;;;-4.10;99.90;;;;;;6189848;23;20171;-76
2022/12/15 14:37:14;;;;;;;60.87;20.10;;;-4.20;99.90;;;;;;6216402;23;20197;-80
2022/12/15 14:39:45;;;;;;;58.87;20.57;;;-4.20;99.90;;;;;;6190245;23;20175;-75
2022/12/15 14:42:22;;;;;;;58.77;20.73;;;-4.10;99.90;;;;;;6189888;23;20163;-76
2022/12/15 14:44:50;;;;;;;63.70;21.83;;;-4.20;99.90;;;;;;6215868;23;20167;-77
2022/12/15 14:47:29;;;;;;;63.37;21.23;;;-4.10;99.90;;;;;;6189927;23;20174;-79
2022/12/15 14:49:59;;;;;;;63.50;20.77;;;-4.10;99.90;;;;;;6189937;23;20173;-77
2022/12/15 14:52:41;;;;;;;64.30;22.17;;;-4.20;99.90;;;;;;6189254;23;20171;-73
2022/12/15 14:55:28;;;;;;;69.80;21.93;;;-4.20;99.90;;;;;;6189154;23;20593;-74
2022/12/15 14:57:55;;;;;;;64.30;22.60;;;-4.30;99.90;;;;;;6215673;23;20177;-74
2022/12/15 15:00:22;;;;;;;63.33;20.73;;;-4.20;99.90;;;;;;6215710;23;20177;-73
2022/12/15 15:03:07;;;;;;;72.53;23.43;;;-4.00;99.90;;;;;;6188468;23;20175;-77
2022/12/15 15:06:00;;;;;;;65.93;22.00;;;-4.00;99.90;;;;;;6189244;23;20168;-76
2022/12/15 15:08:30;;;;;;;62.67;21.87;;;-4.00;99.90;;;;;;6188614;23;20274;-72
2022/12/15 15:11:28;;;;;;;62.60;21.60;;;-4.00;99.90;;;;;;6187920;23;20195;-75
2022/12/15 15:13:58;;;;;;;66.97;22.60;;;-4.00;99.90;;;;;;6215128;23;20168;-74
2022/12/15 15:16:26;;;;;;;68.07;23.53;;;-3.90;99.90;;;;;;6216024;23;20173;-73
2022/12/15 15:18:55;;;;;;;67.17;22.77;;;-3.90;99.90;;;;;;6189578;23;20195;-73
2022/12/15 15:21:25;;;;;;;62.57;21.53;;;-3.80;99.90;;;;;;6189549;23;20166;-75
2022/12/15 15:24:00;;;;;;;63.87;21.93;;;-3.90;99.90;;;;;;6189237;23;20217;-72